Time;durP1;ratioP1;P1;durP2;ratioP2;P2;SDS_P1;SDS_P2;PMS_P1;PMS_P2;Temp;Humidity;BMP_temperature;BMP_pressure;BME280_temperature;BME280_humidity;BME280_pressure;Samples;Min_cycle;Max_cycle;Signal;HPM_P1;HPM_P2
2022/01/15 00:02:57;;;;;;;3.22;1.80;;;;;;;1.62;100.00;101270.69;5014842;28;20048;-58
2022/01/15 00:06:00;;;;;;;12.60;2.85;;;;;;;1.64;100.00;101268.34;4998748;28;20061;-58
2022/01/15 00:09:04;;;;;;;3.22;1.88;;;;;;;1.57;100.00;101268.28;5014963;28;20125;-58
2022/01/15 00:12:08;;;;;;;11.93;2.28;;;;;;;1.57;100.00;101268.28;5014767;28;20056;-58
2022/01/15 00:15:22;;;;;;;16.27;5.28;;;;;;;1.56;100.00;101261.97;5014557;28;20049;-58
2022/01/15 00:18:40;;;;;;;6.05;2.97;;;;;;;1.52;100.00;101261.16;5014643;28;20064;-58
2022/01/15 00:21:44;;;;;;;10.95;3.08;;;;;;;1.50;100.00;101247.03;5014258;28;20465;-59
2022/01/15 00:24:47;;;;;;;9.32;3.70;;;;;;;1.49;100.00;101240.75;5014134;28;20065;-58
2022/01/15 00:27:51;;;;;;;11.13;2.92;;;;;;;1.51;100.00;101249.44;5030133;28;20099;-58
2022/01/15 00:30:54;;;;;;;3.08;1.00;;;;;;;1.51;100.00;101254.13;5014585;28;20053;-58
2022/01/15 00:33:57;;;;;;;1.50;1.40;;;;;;;1.52;100.00;101248.25;5014257;28;20425;-58
2022/01/15 00:37:01;;;;;;;7.57;1.60;;;;;;;1.55;100.00;101241.22;5013778;28;20045;-58
2022/01/15 00:40:09;;;;;;;3.13;2.15;;;;;;;1.56;100.00;101242.00;5014220;28;20674;-58
2022/01/15 00:43:12;;;;;;;8.75;2.63;;;;;;;1.55;100.00;101241.22;5014232;28;20485;-58
2022/01/15 00:46:15;;;;;;;1.42;1.38;;;;;;;1.57;100.00;101229.84;4994287;28;20414;-58
2022/01/15 00:49:19;;;;;;;3.10;2.88;;;;;;;1.57;100.00;101235.31;5003868;28;20057;-58
2022/01/15 00:52:23;;;;;;;13.57;2.28;;;;;;;1.53;100.00;101235.31;5013854;28;20045;-58
2022/01/15 00:55:26;;;;;;;2.28;2.05;;;;;;;1.52;100.00;101234.50;5013915;28;20065;-58
2022/01/15 00:58:29;;;;;;;2.47;2.28;;;;;;;1.44;100.00;101210.94;5012665;28;20044;-58
2022/01/15 01:01:34;;;;;;;2.15;2.05;;;;;;;1.48;100.00;101217.25;5013964;28;20057;-58
2022/01/15 01:04:37;;;;;;;4.97;2.15;;;;;;;1.50;100.00;101220.38;5013887;28;20053;-58
2022/01/15 01:07:41;;;;;;;9.40;3.35;;;;;;;1.45;100.00;101212.50;5013388;28;20053;-58
2022/01/15 01:23:41;;;;;;;2.08;1.20;;;;;;;1.24;100.00;101201.34;5013281;28;20489;-58
2022/01/15 01:39:21;;;;;;;5.38;1.88;;;;;;;1.13;100.00;101178.53;5003199;28;20069;-58
2022/01/15 01:42:38;;;;;;;4.57;2.88;;;;;;;1.14;100.00;101173.84;5012638;28;20068;-58
2022/01/15 01:45:47;;;;;;;7.18;1.88;;;;;;;1.14;100.00;101169.16;5013278;28;20045;-58
2022/01/15 01:48:51;;;;;;;2.17;1.33;;;;;;;1.11;100.00;101164.41;4993509;28;20406;-58
2022/01/15 01:51:54;;;;;;;3.35;2.28;;;;;;;1.07;100.00;101163.59;4993359;28;20122;-58
2022/01/15 01:54:58;;;;;;;2.95;2.25;;;;;;;0.99;100.00;101153.75;4999567;28;20048;-58
2022/01/15 01:58:01;;;;;;;4.25;1.17;;;;;;;0.99;100.00;101150.19;5013104;28;20045;-58
2022/01/15 02:01:05;;;;;;;6.50;0.85;;;;;;;0.99;100.00;101156.47;5012907;28;20417;-58
2022/01/15 02:04:08;;;;;;;12.85;1.67;;;;;;;0.97;100.00;101147.84;5012789;28;20394;-58
2022/01/15 02:07:13;;;;;;;0.90;0.90;;;;;;;0.94;100.00;101131.34;4993006;28;20054;-58
2022/01/15 02:10:19;;;;;;;3.60;1.70;;;;;;;0.92;100.00;101129.00;5016004;28;20052;-58
2022/01/15 02:13:22;;;;;;;3.03;1.15;;;;;;;0.89;100.00;101124.25;5027492;28;20068;-58
2022/01/15 02:16:26;;;;;;;1.58;1.52;;;;;;;0.87;100.00;101123.84;5016546;28;20390;-58
2022/01/15 02:19:34;;;;;;;0.73;0.73;;;;;;;0.86;100.00;101121.50;5017129;28;20045;-58
2022/01/15 02:26:09;;;;;;;1.98;1.67;;;;;;;0.84;100.00;101105.44;5018731;28;20065;-58
2022/01/15 02:29:12;;;;;;;2.25;2.03;;;;;;;0.84;100.00;101104.63;5003161;28;20049;-58
2022/01/15 02:32:15;;;;;;;1.98;1.65;;;;;;;0.81;100.00;101100.69;5016537;28;20495;-58
2022/01/15 02:35:18;;;;;;;3.58;1.85;;;;;;;0.79;100.00;101092.06;5002653;28;20053;-58
2022/01/15 02:38:22;;;;;;;3.83;2.70;;;;;;;0.80;100.00;101090.13;5016440;28;20041;-58
2022/01/15 02:41:29;;;;;;;9.35;2.38;;;;;;;0.84;100.00;101083.50;5007589;28;20049;-58
2022/01/15 02:44:37;;;;;;;6.53;1.42;;;;;;;0.85;100.00;101079.56;5016250;28;20045;-59
2022/01/15 02:51:03;;;;;;;;;;;;;;;0.76;100.00;101068.13;5002271;28;20053;-58
2022/01/15 02:54:07;;;;;;;3.40;1.73;;;;;;;0.70;100.00;101053.22;5015893;28;19917;-58
2022/01/15 02:57:11;;;;;;;10.02;3.33;;;;;;;0.68;100.00;101052.81;5015915;28;20105;-58
2022/01/15 03:00:14;;;;;;;3.83;1.67;;;;;;;0.64;100.00;101057.47;5002767;28;20068;-58
2022/01/15 03:03:18;;;;;;;17.25;2.20;;;;;;;0.61;100.00;101052.75;5001824;28;20065;-58
2022/01/15 03:06:21;;;;;;;3.83;1.02;;;;;;;0.58;100.00;101046.09;5002097;28;20073;-58
2022/01/15 03:09:25;;;;;;;1.05;1.05;;;;;;;0.56;100.00;101044.88;5002311;28;20068;-58
2022/01/15 03:12:28;;;;;;;1.63;1.52;;;;;;;0.56;100.00;101039.41;5016151;28;20049;-58
2022/01/15 03:15:32;;;;;;;6.18;2.22;;;;;;;0.57;100.00;101030.78;5002584;28;20485;-58
2022/01/15 03:18:35;;;;;;;7.63;2.20;;;;;;;0.59;100.00;101027.66;5015359;28;20058;-59
2022/01/15 03:21:39;;;;;;;2.38;1.70;;;;;;;0.58;100.00;101018.69;5015682;28;20061;-59
2022/01/15 03:24:42;;;;;;;2.45;2.25;;;;;;;0.54;100.00;101022.56;5015642;28;20049;-58
2022/01/15 03:27:45;;;;;;;2.05;1.95;;;;;;;0.52;100.00;101013.94;5024590;28;20491;-58
2022/01/15 03:30:49;;;;;;;12.70;3.90;;;;;;;0.51;100.00;101010.41;5014544;28;20057;-59
2022/01/15 03:33:52;;;;;;;2.15;1.75;;;;;;;0.44;100.00;101009.53;4996139;28;20053;-58
2022/01/15 03:36:55;;;;;;;1.90;1.73;;;;;;;0.40;100.00;100995.03;5011784;28;20052;-58
2022/01/15 03:39:59;;;;;;;2.72;2.33;;;;;;;0.41;100.00;100993.88;5004736;28;20044;-58
2022/01/15 03:43:04;;;;;;;9.38;2.63;;;;;;;0.41;100.00;100977.44;5014855;28;20053;-58
2022/01/15 03:46:08;;;;;;;4.13;1.90;;;;;;;0.43;100.00;100975.09;5015521;28;20057;-58
2022/01/15 03:49:11;;;;;;;1.75;1.42;;;;;;;0.45;100.00;100979.03;5012909;28;20061;-58
2022/01/15 03:52:14;;;;;;;1.10;1.10;;;;;;;0.43;100.00;100964.13;5010490;28;20045;-58
2022/01/15 03:55:19;;;;;;;2.28;1.98;;;;;;;0.42;100.00;100966.09;4997473;28;20061;-58
2022/01/15 03:58:23;;;;;;;1.17;1.08;;;;;;;0.32;100.00;100960.53;5014901;28;20048;-58
2022/01/15 04:01:26;;;;;;;2.72;2.22;;;;;;;0.32;100.00;100955.03;4998644;28;20056;-58
2022/01/15 04:04:29;;;;;;;2.22;2.13;;;;;;;0.33;100.00;100953.88;5014761;28;20117;-58
2022/01/15 04:07:33;;;;;;;1.02;1.02;;;;;;;0.41;100.00;100950.78;5014840;28;20052;-58
2022/01/15 04:10:36;;;;;;;3.00;1.77;;;;;;;0.48;100.00;100939.09;5014399;28;20056;-59
2022/01/15 04:13:39;;;;;;;3.50;2.20;;;;;;;0.50;100.00;100937.56;5014543;28;20053;-59
2022/01/15 04:16:43;;;;;;;10.98;2.08;;;;;;;0.56;100.00;100927.03;5001517;28;20069;-58
2022/01/15 04:19:46;;;;;;;1.05;1.05;;;;;;;0.56;100.00;100924.31;5000250;28;20053;-59
2022/01/15 04:22:51;;;;;;;2.70;2.25;;;;;;;0.48;100.00;100925.41;5014226;28;20053;-58
2022/01/15 04:25:55;;;;;;;16.30;1.33;;;;;;;0.47;100.00;100915.63;5002117;28;20049;-59
2022/01/15 04:29:04;;;;;;;18.88;1.65;;;;;;;0.48;100.00;100908.97;5019446;28;20049;-59
2022/01/15 04:32:08;;;;;;;6.68;2.42;;;;;;;0.21;100.00;100907.59;5001811;28;20064;-58
2022/01/15 04:35:12;;;;;;;0.43;0.43;;;;;;;0.48;100.00;100898.00;5014247;28;20053;-58
2022/01/15 04:38:16;;;;;;;2.95;2.28;;;;;;;0.50;100.00;100898.41;5002779;28;20053;-59
2022/01/15 04:41:19;;;;;;;1.55;1.10;;;;;;;0.54;100.00;100888.28;5014036;28;20057;-58
2022/01/15 04:44:22;;;;;;;4.90;1.70;;;;;;;0.54;100.00;100899.25;5013786;28;20073;-58
2022/01/15 04:47:26;;;;;;;2.15;1.60;;;;;;;0.54;100.00;100897.25;5013976;28;20052;-58
2022/01/15 04:50:29;;;;;;;1.40;1.30;;;;;;;0.55;100.00;100889.84;5004079;28;20061;-58
2022/01/15 04:53:33;;;;;;;3.13;2.30;;;;;;;0.54;100.00;100888.28;4995957;28;20049;-58
2022/01/15 04:56:36;;;;;;;1.60;1.50;;;;;;;0.48;100.00;100878.81;5003371;28;20395;-58
2022/01/15 04:59:39;;;;;;;7.75;2.28;;;;;;;0.42;100.00;100878.41;4996372;28;20057;-58
2022/01/15 05:02:43;;;;;;;2.35;1.90;;;;;;;0.38;100.00;100885.03;5007878;28;20052;-58
2022/01/15 05:05:46;;;;;;;1.23;1.15;;;;;;;0.29;100.00;100884.56;5013824;28;20045;-58
2022/01/15 05:09:01;;;;;;;1.10;1.00;;;;;;;0.24;100.00;100879.47;5013543;28;20052;-59
2022/01/15 05:12:23;;;;;;;5.68;2.70;;;;;;;0.19;100.00;100879.81;4998981;28;20370;-58
2022/01/15 05:15:27;;;;;;;2.00;1.08;;;;;;;0.16;100.00;100877.81;5013558;28;20049;-58
2022/01/15 05:18:30;;;;;;;6.45;3.17;;;;;;;0.19;100.00;100877.06;5013597;28;20056;-58
2022/01/15 05:21:34;;;;;;;4.40;2.38;;;;;;;0.19;100.00;100877.06;4996260;28;20053;-58
2022/01/15 05:24:37;;;;;;;1.25;1.25;;;;;;;0.17;100.00;100868.47;5023800;28;20057;-58
2022/01/15 05:27:41;;;;;;;4.68;1.20;;;;;;;0.16;100.00;100858.66;5027927;28;20060;-58
2022/01/15 05:30:45;;;;;;;2.22;1.23;;;;;;;0.17;100.00;100872.00;5013651;28;20473;-59
2022/01/15 05:33:48;;;;;;;0.90;0.90;;;;;;;0.12;100.00;100868.81;4995654;28;20057;-59
2022/01/15 05:36:51;;;;;;;0.80;0.80;;;;;;;0.03;100.00;100869.13;5003847;28;20413;-58
2022/01/15 05:39:55;;;;;;;2.70;1.77;;;;;;;-0.02;100.00;100875.75;5004016;28;20069;-58
2022/01/15 05:42:58;;;;;;;0.43;0.43;;;;;;;-0.04;100.00;100880.81;5003989;28;20057;-59
2022/01/15 05:46:01;;;;;;;2.15;1.58;;;;;;;-0.05;100.00;100887.47;5011694;28;20489;-59
2022/01/15 05:49:05;;;;;;;4.15;1.45;;;;;;;-0.05;100.00;100894.88;5012679;28;20497;-58
2022/01/15 05:52:08;;;;;;;2.83;1.65;;;;;;;-0.01;100.00;100888.28;5013186;28;20056;-58
2022/01/15 05:55:11;;;;;;;5.25;3.70;;;;;;;0.02;100.00;100885.94;5012893;28;20057;-58
2022/01/15 05:58:15;;;;;;;2.15;1.40;;;;;;;-0.02;100.00;100877.69;5013140;28;20060;-59
2022/01/15 06:01:19;;;;;;;6.53;1.60;;;;;;;-0.04;100.00;100877.28;5012243;28;20057;-59
2022/01/15 06:04:22;;;;;;;0.88;0.88;;;;;;;-0.02;100.00;100877.69;5012483;28;20068;-59
2022/01/15 06:07:25;;;;;;;2.40;1.80;;;;;;;0.02;100.00;100877.72;4999810;28;20057;-59
2022/01/15 06:10:29;;;;;;;1.33;1.23;;;;;;;0.00;100.00;100876.16;5003514;28;20065;-59
2022/01/15 06:13:32;;;;;;;2.25;1.63;;;;;;;0.02;100.00;100872.25;5002946;28;20065;-60
2022/01/15 06:16:36;;;;;;;6.03;3.53;;;;;;;0.06;100.00;100865.66;5002822;28;20053;-59
2022/01/15 06:19:39;;;;;;;0.43;0.43;;;;;;;0.11;100.00;100875.47;5001786;28;20049;-60
2022/01/15 06:22:43;;;;;;;1.05;1.05;;;;;;;0.13;100.00;100884.06;5002536;28;20041;-59
2022/01/15 06:25:46;;;;;;;1.05;0.85;;;;;;;0.11;100.00;100881.69;5004068;28;20064;-59
2022/01/15 06:28:49;;;;;;;17.65;1.92;;;;;;;0.15;100.00;100881.75;5002557;28;20045;-59
2022/01/15 06:31:54;;;;;;;4.38;2.08;;;;;;;0.11;100.00;100889.16;5002215;28;20103;-59
2022/01/15 06:34:57;;;;;;;2.38;1.42;;;;;;;0.06;100.00;100887.56;5004113;28;20050;-59
2022/01/15 06:38:00;;;;;;;0.80;0.80;;;;;;;0.07;100.00;100891.06;5001991;28;20054;-59
2022/01/15 06:41:03;;;;;;;1.65;1.33;;;;;;;0.13;100.00;100892.28;5002499;28;20061;-59
2022/01/15 06:44:07;;;;;;;15.85;3.95;;;;;;;0.22;100.00;100890.03;5002826;28;20045;-59
2022/01/15 06:47:10;;;;;;;2.08;1.08;;;;;;;0.33;100.00;100877.16;5002249;28;20064;-59
2022/01/15 06:50:13;;;;;;;1.08;1.08;;;;;;;0.37;100.00;100867.81;5000711;28;20053;-59
2022/01/15 06:53:17;;;;;;;11.38;2.47;;;;;;;0.49;100.00;100874.94;5005755;28;20052;-59
2022/01/15 06:56:20;;;;;;;2.05;1.88;;;;;;;0.59;100.00;100863.22;5003164;28;20394;-59
2022/01/15 06:59:24;;;;;;;4.88;1.38;;;;;;;0.68;100.00;100856.25;5007316;28;20053;-59
2022/01/15 07:02:27;;;;;;;2.65;2.30;;;;;;;0.77;100.00;100859.44;5005919;28;20045;-59
2022/01/15 07:05:30;;;;;;;2.33;1.40;;;;;;;0.88;100.00;100851.25;5006569;28;20041;-60
2022/01/15 07:08:34;;;;;;;2.67;1.05;;;;;;;0.95;100.00;100845.78;5011650;28;20513;-60
2022/01/15 07:11:37;;;;;;;0.88;0.88;;;;;;;1.00;100.00;100845.41;5011350;28;20046;-60
2022/01/15 07:14:40;;;;;;;6.65;1.77;;;;;;;1.07;100.00;100839.94;5009998;28;20045;-60
2022/01/15 07:17:46;;;;;;;2.40;1.00;;;;;;;1.03;100.00;100838.38;5007836;28;20053;-59
2022/01/15 07:20:51;;;;;;;3.03;2.38;;;;;;;1.21;100.00;100834.47;5003568;28;20509;-59
2022/01/15 07:23:54;;;;;;;0.63;0.63;;;;;;;1.26;100.00;100831.38;5016320;28;20048;-59
2022/01/15 07:26:57;;;;;;;5.70;1.92;;;;;;;1.33;100.00;100825.91;5025981;28;20056;-60
2022/01/15 07:30:07;;;;;;;20.10;2.97;;;;;;;1.35;100.00;100818.06;5013195;28;20053;-59
2022/01/15 07:33:10;;;;;;;1.05;1.05;;;;;;;1.43;100.00;100816.91;4996786;28;20049;-59
2022/01/15 07:36:15;;;;;;;10.68;3.47;;;;;;;1.52;100.00;100824.75;5015182;28;20044;-59
2022/01/15 07:39:18;;;;;;;7.65;1.92;;;;;;;1.61;100.00;100819.66;5014353;28;20053;-59
2022/01/15 07:42:22;;;;;;;5.15;1.88;;;;;;;1.70;100.00;100817.31;5015714;28;20053;-60
2022/01/15 07:45:25;;;;;;;2.88;1.42;;;;;;;1.73;100.00;100832.22;5003754;28;20057;-59
2022/01/15 07:48:28;;;;;;;8.63;2.72;;;;;;;1.72;100.00;100836.91;5015079;28;20060;-60
2022/01/15 07:51:32;;;;;;;3.40;1.65;;;;;;;1.77;100.00;100828.31;5006365;28;20391;-60
2022/01/15 07:54:35;;;;;;;5.63;2.20;;;;;;;1.81;100.00;100834.56;5012545;28;20057;-59
2022/01/15 07:57:40;;;;;;;6.07;2.15;;;;;;;1.80;100.00;100829.50;5014209;28;20056;-60
2022/01/15 08:00:44;;;;;;;7.43;2.63;;;;;;;1.83;100.00;100834.19;5014541;28;20048;-60
2022/01/15 08:03:48;;;;;;;1.90;1.77;;;;;;;1.84;100.00;100844.00;5014668;28;20048;-60
2022/01/15 08:06:52;;;;;;;2.60;1.45;;;;;;;1.88;100.00;100840.06;5014543;28;20057;-60
2022/01/15 08:09:55;;;;;;;4.57;1.70;;;;;;;1.94;100.00;100832.22;5013938;28;20068;-60
2022/01/15 08:12:59;;;;;;;2.90;2.05;;;;;;;1.85;100.00;100837.31;5013385;28;20049;-59
2022/01/15 08:16:04;;;;;;;11.48;1.98;;;;;;;1.88;100.00;100831.06;5014538;28;20056;-59
2022/01/15 08:19:08;;;;;;;1.77;1.67;;;;;;;1.95;100.00;100828.31;4998752;28;20386;-59
2022/01/15 08:22:11;;;;;;;8.82;3.90;;;;;;;1.97;100.00;100826.72;5013914;28;20068;-59
2022/01/15 08:25:18;;;;;;;5.88;1.58;;;;;;;2.00;100.00;100827.88;5013764;28;20061;-60
2022/01/15 08:28:23;;;;;;;5.95;2.20;;;;;;;2.02;100.00;100809.06;4994746;28;20065;-60
2022/01/15 08:31:27;;;;;;;4.13;2.13;;;;;;;2.04;100.00;100814.94;5000503;28;20045;-60
2022/01/15 08:34:30;;;;;;;5.65;1.85;;;;;;;1.78;100.00;100807.09;5014336;28;20057;-59
2022/01/15 08:37:37;;;;;;;18.73;2.35;;;;;;;1.88;100.00;100800.84;4994405;28;20049;-60
2022/01/15 08:40:40;;;;;;;2.47;1.35;;;;;;;1.77;100.00;100800.06;5009405;28;20060;-60
2022/01/15 08:43:44;;;;;;;8.65;2.83;;;;;;;1.43;100.00;100808.66;5014044;28;20045;-59
2022/01/15 08:46:47;;;;;;;4.82;1.30;;;;;;;1.83;100.00;100809.47;4997824;28;20057;-59
2022/01/15 08:49:50;;;;;;;19.52;2.70;;;;;;;2.06;100.00;100807.06;5002598;28;20413;-59
2022/01/15 08:52:54;;;;;;;12.95;3.90;;;;;;;2.15;100.00;100790.97;5013613;28;20064;-59
2022/01/15 08:55:57;;;;;;;1.05;0.95;;;;;;;2.24;100.00;100794.09;5013803;28;20049;-59
2022/01/15 08:59:04;;;;;;;11.45;3.03;;;;;;;2.30;100.00;100790.56;5014166;28;20172;-60
2022/01/15 09:02:10;;;;;;;15.45;3.13;;;;;;;2.41;100.00;100790.53;5003963;28;20049;-59
2022/01/15 09:05:14;;;;;;;1.60;1.25;;;;;;;2.50;100.00;100784.59;5012693;28;20053;-60
2022/01/15 09:08:24;;;;;;;4.43;2.90;;;;;;;2.59;100.00;100783.00;5013790;28;20494;-59
2022/01/15 09:11:27;;;;;;;6.15;1.95;;;;;;;2.74;100.00;100784.50;5007277;28;20052;-60
2022/01/15 09:14:31;;;;;;;11.15;1.50;;;;;;;2.75;100.00;100782.56;5000844;28;20049;-59
2022/01/15 09:17:34;;;;;;;2.42;1.17;;;;;;;2.82;100.00;100777.78;5005417;28;20034;-60
2022/01/15 09:20:37;;;;;;;1.75;1.63;;;;;;;2.92;100.00;100787.94;5002696;28;20113;-60
2022/01/15 09:23:41;;;;;;;1.83;1.73;;;;;;;3.06;100.00;100776.88;5003612;28;20052;-60
2022/01/15 09:30:12;;;;;;;2.08;1.55;;;;;;;3.06;100.00;100785.13;5002995;28;20052;-60
2022/01/15 09:33:16;;;;;;;1.63;1.55;;;;;;;3.06;100.00;100776.09;5013107;28;20064;-60
2022/01/15 09:36:20;;;;;;;7.85;3.03;;;;;;;3.15;100.00;100772.88;4999206;28;20049;-60
2022/01/15 09:39:23;;;;;;;23.95;1.77;;;;;;;3.20;100.00;100775.22;5011135;28;20057;-60
2022/01/15 09:42:27;;;;;;;1.92;1.65;;;;;;;3.25;100.00;100770.06;5013007;28;20057;-60
2022/01/15 09:45:31;;;;;;;39.78;3.70;;;;;;;3.43;100.00;100767.97;5009537;28;20056;-60
2022/01/15 09:48:38;;;;;;;4.88;1.55;;;;;;;3.49;100.00;100760.06;5004477;28;20057;-60
2022/01/15 09:51:43;;;;;;;6.55;4.07;;;;;;;3.49;100.00;100773.81;5012839;28;20399;-60
2022/01/15 09:54:48;;;;;;;3.75;2.88;;;;;;;3.55;100.00;100763.97;5012923;28;20060;-60
2022/01/15 09:57:53;;;;;;;11.43;2.58;;;;;;;3.62;100.00;100758.38;4998036;28;20053;-59
2022/01/15 10:00:57;;;;;;;4.65;2.15;;;;;;;3.47;100.00;100745.91;5012312;28;20053;-59
2022/01/15 10:04:00;;;;;;;7.75;1.70;;;;;;;3.41;100.00;100742.81;5012126;28;20057;-59
2022/01/15 10:07:22;;;;;;;9.15;1.63;;;;;;;3.62;100.00;100737.13;5012588;28;20064;-59
2022/01/15 10:10:29;;;;;;;6.43;2.53;;;;;;;3.74;100.00;100738.59;4993201;28;20057;-60
2022/01/15 10:13:42;;;;;;;10.38;1.92;;;;;;;3.85;100.00;100739.28;5010203;28;20061;-59
2022/01/15 10:16:45;;;;;;;5.15;2.30;;;;;;;3.99;100.00;100735.59;5012405;28;20516;-60
2022/01/15 10:19:50;;;;;;;3.28;1.55;;;;;;;4.04;100.00;100733.19;5009025;28;20414;-59
2022/01/15 10:22:53;;;;;;;7.88;2.50;;;;;;;4.09;100.00;100738.25;5004762;28;20489;-59
2022/01/15 10:26:12;;;;;;;1.77;1.65;;;;;;;4.16;100.00;100743.69;5012428;28;20402;-59
2022/01/15 10:29:15;;;;;;;1.15;1.15;;;;;;;4.05;100.00;100743.00;5032319;28;20052;-59
2022/01/15 10:32:18;;;;;;;1.20;1.20;;;;;;;4.10;100.00;100739.81;5010752;28;20052;-59
2022/01/15 10:35:23;;;;;;;6.45;1.65;;;;;;;4.15;100.00;100741.34;5016135;28;20040;-59
2022/01/15 10:38:33;;;;;;;4.57;1.38;;;;;;;4.18;100.00;100735.78;5004235;28;20052;-59
2022/01/15 10:41:37;;;;;;;3.83;1.75;;;;;;;4.17;100.00;100739.75;5000134;28;20050;-59
2022/01/15 10:44:42;;;;;;;6.20;1.15;;;;;;;4.24;100.00;100728.66;5014912;28;20052;-59
2022/01/15 10:47:49;;;;;;;3.85;0.98;;;;;;;4.24;100.00;100723.13;5016403;28;20053;-59
2022/01/15 10:51:03;;;;;;;12.80;2.45;;;;;;;4.14;100.00;100723.22;5015575;28;20053;-58
2022/01/15 10:54:07;;;;;;;15.65;2.03;;;;;;;4.23;100.00;100727.06;5000562;28;20044;-58
2022/01/15 10:57:10;;;;;;;1.85;1.10;;;;;;;4.44;100.00;100718.53;5015558;28;20057;-58
2022/01/15 11:00:29;;;;;;;2.85;1.67;;;;;;;4.49;100.00;100715.34;4999815;28;20048;-58
2022/01/15 11:03:46;;;;;;;3.80;1.33;;;;;;;4.56;100.00;100718.00;4995657;28;20053;-58
2022/01/15 11:06:49;;;;;;;0.93;0.82;;;;;;;4.54;100.00;100712.13;5012271;28;20053;-58
2022/01/15 11:09:55;;;;;;;9.40;1.92;;;;;;;4.43;100.00;100703.22;5014452;28;20533;-58
2022/01/15 11:13:01;;;;;;;10.23;2.13;;;;;;;4.37;100.00;100707.63;5006476;28;20398;-58
2022/01/15 11:16:08;;;;;;;1.42;1.27;;;;;;;4.33;100.00;100704.09;5015596;28;20056;-58
2022/01/15 11:19:12;;;;;;;2.08;1.90;;;;;;;4.35;100.00;100689.91;5015605;28;20048;-58
2022/01/15 11:22:21;;;;;;;2.60;1.67;;;;;;;4.30;100.00;100688.41;4999416;28;20521;-58
2022/01/15 11:25:25;;;;;;;4.03;1.45;;;;;;;4.35;100.00;100685.16;5015636;28;20061;-58
2022/01/15 11:28:30;;;;;;;1.60;1.50;;;;;;;4.34;100.00;100682.81;5001138;28;20366;-58
2022/01/15 11:31:36;;;;;;;1.75;1.25;;;;;;;4.31;100.00;100678.16;5015203;28;20049;-58
2022/01/15 11:34:41;;;;;;;1.65;1.10;;;;;;;4.37;100.00;100682.00;4995556;28;20126;-58
2022/01/15 11:37:47;;;;;;;4.15;2.33;;;;;;;4.34;100.00;100675.34;5010183;28;20065;-58
2022/01/15 11:40:53;;;;;;;6.00;2.25;;;;;;;4.34;100.00;100672.59;5015302;28;20053;-58
2022/01/15 11:44:02;;;;;;;6.03;1.15;;;;;;;4.34;100.00;100667.06;5014035;28;20398;-58
2022/01/15 11:47:24;;;;;;;5.55;1.05;;;;;;;4.30;100.00;100654.53;5014281;28;20052;-58
2022/01/15 11:50:27;;;;;;;0.50;0.50;;;;;;;4.31;100.00;100667.88;4995399;28;20061;-58
2022/01/15 11:53:47;;;;;;;4.40;2.05;;;;;;;4.36;100.00;100656.41;4996389;28;20061;-58
2022/01/15 11:56:51;;;;;;;15.70;2.47;;;;;;;4.40;100.00;100653.59;5010801;28;20053;-58
2022/01/15 11:59:57;;;;;;;5.88;1.83;;;;;;;4.46;100.00;100654.72;5014693;28;20501;-58
2022/01/15 12:03:09;;;;;;;1.75;1.65;;;;;;;4.52;100.00;100648.31;5007344;28;20057;-58
2022/01/15 12:06:12;;;;;;;0.80;0.75;;;;;;;4.56;100.00;100651.81;5011807;28;20052;-58
2022/01/15 12:09:38;;;;;;;1.98;1.33;;;;;;;4.63;100.00;100648.19;5014678;28;20072;-58
2022/01/15 12:12:42;;;;;;;4.13;2.47;;;;;;;4.61;100.00;100634.78;5014657;28;20057;-58
2022/01/15 12:15:46;;;;;;;2.42;1.40;;;;;;;4.67;100.00;100645.34;5014229;28;20040;-58
2022/01/15 12:18:51;;;;;;;4.10;0.98;;;;;;;4.70;100.00;100644.53;5014027;28;20056;-58
2022/01/15 12:21:55;;;;;;;6.38;2.22;;;;;;;4.82;100.00;100646.72;5014304;28;20060;-59
2022/01/15 12:24:59;;;;;;;3.70;1.90;;;;;;;4.90;100.00;100637.13;5001074;28;20052;-58
2022/01/15 12:28:07;;;;;;;2.20;1.85;;;;;;;4.98;100.00;100639.34;5017408;28;20509;-58
2022/01/15 12:31:11;;;;;;;10.18;1.98;;;;;;;4.98;100.00;100631.06;5001823;28;20406;-58
2022/01/15 12:34:24;;;;;;;18.08;3.25;;;;;;;4.97;100.00;100625.97;4999039;28;20053;-58
2022/01/15 12:37:28;;;;;;;6.03;1.15;;;;;;;5.04;100.00;100621.13;5013843;28;20402;-58
2022/01/15 12:40:33;;;;;;;1.35;1.15;;;;;;;5.05;100.00;100621.88;4994711;28;20390;-57
2022/01/15 12:43:40;;;;;;;5.70;1.92;;;;;;;4.99;100.00;100618.03;5009684;28;20494;-56
2022/01/15 12:46:45;;;;;;;3.78;1.33;;;;;;;4.97;100.00;100614.94;5007760;28;20570;-58
2022/01/15 12:49:54;;;;;;;1.20;1.00;;;;;;;5.01;100.00;100615.66;5013638;28;20073;-58
2022/01/15 12:53:02;;;;;;;0.32;0.32;;;;;;;4.96;100.00;100599.59;5013835;28;20064;-58
2022/01/15 12:56:13;;;;;;;4.70;1.90;;;;;;;4.91;100.00;100594.53;4999183;28;20597;-58
2022/01/15 12:59:26;;;;;;;9.57;2.88;;;;;;;4.94;100.00;100591.69;5000960;28;20053;-58
2022/01/15 13:02:29;;;;;;;3.40;0.90;;;;;;;4.87;100.00;100591.84;4993643;28;20053;-58
2022/01/15 13:05:39;;;;;;;2.95;1.60;;;;;;;5.03;100.00;100594.72;4994110;28;20119;-58
2022/01/15 13:08:44;;;;;;;6.78;1.65;;;;;;;5.20;100.00;100585.34;5012904;28;20060;-55
2022/01/15 13:12:00;;;;;;;10.63;1.30;;;;;;;5.34;100.00;100582.34;5013707;28;20145;-53
2022/01/15 13:15:03;;;;;;;1.90;1.40;;;;;;;5.37;100.00;100572.44;5002671;28;20053;-51
2022/01/15 13:18:12;;;;;;;4.68;2.45;;;;;;;5.54;100.00;100574.09;5013482;28;20049;-51
2022/01/15 13:21:28;;;;;;;9.30;1.80;;;;;;;5.66;100.00;100573.44;5003918;28;20053;-52
2022/01/15 13:24:31;;;;;;;2.47;1.35;;;;;;;5.76;100.00;100566.16;4997852;28;20053;-51
2022/01/15 13:27:34;;;;;;;5.68;3.35;;;;;;;5.91;100.00;100551.63;5015735;28;20069;-49
2022/01/15 13:30:38;;;;;;;1.42;0.95;;;;;;;6.00;100.00;100560.13;5013886;28;20053;-49
2022/01/15 13:33:45;;;;;;;8.35;1.77;;;;;;;6.05;100.00;100556.88;5013095;28;20065;-48
2022/01/15 13:36:48;;;;;;;1.30;0.80;;;;;;;6.09;100.00;100556.78;5006733;28;20049;-50
2022/01/15 13:39:51;;;;;;;1.33;1.00;;;;;;;6.08;100.00;100550.50;5006995;28;20103;-50
2022/01/15 13:42:55;;;;;;;3.38;1.42;;;;;;;6.19;100.00;100546.72;5013156;28;20044;-50
2022/01/15 13:46:12;;;;;;;7.00;3.17;;;;;;;6.23;100.00;100539.91;5020446;28;20052;-50
2022/01/15 13:49:19;;;;;;;8.68;1.02;;;;;;;6.26;100.00;100543.78;4998115;28;20053;-49
2022/01/15 13:56:11;;;;;;;6.70;2.65;;;;;;;6.40;100.00;100524.88;5002629;28;20056;-50
2022/01/15 13:59:18;;;;;;;3.40;0.75;;;;;;;6.35;100.00;100524.59;5012773;28;20056;-50
2022/01/15 14:02:27;;;;;;;11.95;3.05;;;;;;;6.40;100.00;100510.25;5012095;28;20045;-50
2022/01/15 14:05:32;;;;;;;13.68;2.28;;;;;;;6.38;100.00;100523.75;5011248;28;20505;-50
2022/01/15 14:08:36;;;;;;;2.95;1.63;;;;;;;6.36;100.00;100512.34;4998510;28;20061;-50
2022/01/15 14:11:39;;;;;;;5.20;1.98;;;;;;;6.36;100.00;100504.03;5003417;28;20048;-50
2022/01/15 14:15:03;;;;;;;7.10;2.00;;;;;;;6.30;100.00;100489.16;4999133;28;20375;-50
2022/01/15 14:18:14;;;;;;;5.63;2.47;;;;;;;6.29;100.00;100490.38;5011506;28;20052;-50
2022/01/15 14:21:39;;;;;;;5.43;2.13;;;;;;;6.20;100.00;100490.19;5011921;28;20053;-50
2022/01/15 14:24:43;;;;;;;7.60;1.55;;;;;;;6.09;100.00;100491.22;5013051;28;20065;-51
2022/01/15 14:28:05;;;;;;;13.68;2.63;;;;;;;6.04;100.00;100497.25;5013087;28;20379;-51
2022/01/15 14:31:12;;;;;;;11.23;1.60;;;;;;;6.07;100.00;100490.88;5011976;28;20501;-51
2022/01/15 14:34:15;;;;;;;10.98;2.20;;;;;;;6.15;100.00;100494.22;5011424;28;20395;-52
2022/01/15 14:37:19;;;;;;;11.95;3.50;;;;;;;6.17;100.00;100494.59;5011488;28;20068;-51
2022/01/15 14:40:24;;;;;;;3.65;1.65;;;;;;;6.19;100.00;100488.63;5010836;28;20061;-51
2022/01/15 14:43:29;;;;;;;4.80;1.80;;;;;;;6.21;100.00;100491.75;4991161;28;20053;-51
2022/01/15 14:46:33;;;;;;;4.40;1.35;;;;;;;6.20;100.00;100492.94;5018104;28;20057;-51
2022/01/15 14:49:37;;;;;;;1.63;1.40;;;;;;;6.13;100.00;100489.13;5011355;28;20048;-51
2022/01/15 14:52:41;;;;;;;11.32;1.33;;;;;;;6.09;100.00;100485.69;5011764;28;20053;-51
2022/01/15 14:55:45;;;;;;;8.40;2.92;;;;;;;6.05;100.00;100479.47;5015785;28;20049;-51
2022/01/15 14:58:48;;;;;;;2.15;1.60;;;;;;;6.06;100.00;100485.78;5012330;28;20056;-51
2022/01/15 15:01:52;;;;;;;4.75;2.08;;;;;;;5.92;100.00;100475.03;5011499;28;20064;-51